sensor_id;sensor_type;location;lat;lon;timestamp;P1;durP1;ratioP1;P2;durP2;ratioP2
16870;SDS011;8552;48.120;-1.456;2022-09-02T00:00:45;7.68;;;5.60;;
16870;SDS011;8552;48.120;-1.456;2022-09-02T00:03:13;7.47;;;5.43;;
16870;SDS011;8552;48.120;-1.456;2022-09-02T00:05:39;7.10;;;5.13;;
16870;SDS011;8552;48.120;-1.456;2022-09-02T00:08:05;7.05;;;5.93;;
16870;SDS011;8552;48.120;-1.456;2022-09-02T00:10:31;7.10;;;5.60;;
16870;SDS011;8552;48.120;-1.456;2022-09-02T00:12:59;6.30;;;5.70;;
16870;SDS011;8552;48.120;-1.456;2022-09-02T00:15:25;5.43;;;4.45;;
16870;SDS011;8552;48.120;-1.456;2022-09-02T00:17:51;9.80;;;5.38;;
16870;SDS011;8552;48.120;-1.456;2022-09-02T00:20:16;6.03;;;5.13;;
16870;SDS011;8552;48.120;-1.456;2022-09-02T00:22:42;5.93;;;5.07;;
16870;SDS011;8552;48.120;-1.456;2022-09-02T00:25:09;6.88;;;5.47;;
16870;SDS011;8552;48.120;-1.456;2022-09-02T00:27:35;6.55;;;5.25;;
16870;SDS011;8552;48.120;-1.456;2022-09-02T00:30:01;6.55;;;5.82;;
16870;SDS011;8552;48.120;-1.456;2022-09-02T00:32:27;7.88;;;5.97;;
16870;SDS011;8552;48.120;-1.456;2022-09-02T00:34:53;9.27;;;6.80;;
16870;SDS011;8552;48.120;-1.456;2022-09-02T00:37:20;8.30;;;6.22;;
16870;SDS011;8552;48.120;-1.456;2022-09-02T00:39:45;8.15;;;6.50;;
16870;SDS011;8552;48.120;-1.456;2022-09-02T00:42:11;7.15;;;6.25;;
16870;SDS011;8552;48.120;-1.456;2022-09-02T00:44:37;8.00;;;6.35;;
16870;SDS011;8552;48.120;-1.456;2022-09-02T00:47:03;8.20;;;5.93;;
16870;SDS011;8552;48.120;-1.456;2022-09-02T00:49:29;10.93;;;6.22;;
16870;SDS011;8552;48.120;-1.456;2022-09-02T00:51:58;6.55;;;5.95;;
16870;SDS011;8552;48.120;-1.456;2022-09-02T00:54:26;8.65;;;6.85;;
16870;SDS011;8552;48.120;-1.456;2022-09-02T00:56:54;6.63;;;5.80;;
16870;SDS011;8552;48.120;-1.456;2022-09-02T00:59:27;8.35;;;6.88;;
16870;SDS011;8552;48.120;-1.456;2022-09-02T01:02:04;8.82;;;6.75;;
16870;SDS011;8552;48.120;-1.456;2022-09-02T01:04:31;6.65;;;6.00;;
16870;SDS011;8552;48.120;-1.456;2022-09-02T01:06:57;7.72;;;6.78;;
16870;SDS011;8552;48.120;-1.456;2022-09-02T01:09:23;7.60;;;6.90;;
16870;SDS011;8552;48.120;-1.456;2022-09-02T01:11:49;8.80;;;7.78;;
16870;SDS011;8552;48.120;-1.456;2022-09-02T01:14:17;8.52;;;7.57;;
16870;SDS011;8552;48.120;-1.456;2022-09-02T01:16:45;6.65;;;5.90;;
16870;SDS011;8552;48.120;-1.456;2022-09-02T01:19:19;7.10;;;6.32;;
16870;SDS011;8552;48.120;-1.456;2022-09-02T01:21:50;7.53;;;5.97;;
16870;SDS011;8552;48.120;-1.456;2022-09-02T01:24:18;6.90;;;6.22;;
16870;SDS011;8552;48.120;-1.456;2022-09-02T01:26:46;8.68;;;7.57;;
16870;SDS011;8552;48.120;-1.456;2022-09-02T01:29:12;9.95;;;7.80;;
16870;SDS011;8552;48.120;-1.456;2022-09-02T01:31:37;9.32;;;8.05;;
16870;SDS011;8552;48.120;-1.456;2022-09-02T01:34:03;8.45;;;7.45;;
16870;SDS011;8552;48.120;-1.456;2022-09-02T01:36:31;9.07;;;7.13;;
16870;SDS011;8552;48.120;-1.456;2022-09-02T01:38:57;6.85;;;6.18;;
16870;SDS011;8552;48.120;-1.456;2022-09-02T01:41:23;6.45;;;5.85;;
16870;SDS011;8552;48.120;-1.456;2022-09-02T01:43:49;7.43;;;6.45;;
16870;SDS011;8552;48.120;-1.456;2022-09-02T01:46:14;7.45;;;5.95;;
16870;SDS011;8552;48.120;-1.456;2022-09-02T01:48:40;8.50;;;7.13;;
16870;SDS011;8552;48.120;-1.456;2022-09-02T01:51:06;7.07;;;6.38;;
16870;SDS011;8552;48.120;-1.456;2022-09-02T01:53:32;7.07;;;6.38;;
16870;SDS011;8552;48.120;-1.456;2022-09-02T01:55:58;8.90;;;7.22;;
16870;SDS011;8552;48.120;-1.456;2022-09-02T01:58:24;8.80;;;7.57;;
16870;SDS011;8552;48.120;-1.456;2022-09-02T02:00:50;10.82;;;8.65;;
16870;SDS011;8552;48.120;-1.456;2022-09-02T02:03:16;10.00;;;8.18;;
16870;SDS011;8552;48.120;-1.456;2022-09-02T02:05:43;9.50;;;8.43;;
16870;SDS011;8552;48.120;-1.456;2022-09-02T02:08:09;8.23;;;7.40;;
16870;SDS011;8552;48.120;-1.456;2022-09-02T02:10:35;8.23;;;7.00;;
16870;SDS011;8552;48.120;-1.456;2022-09-02T02:13:01;7.57;;;6.78;;
16870;SDS011;8552;48.120;-1.456;2022-09-02T02:15:27;7.60;;;6.57;;
16870;SDS011;8552;48.120;-1.456;2022-09-02T02:17:53;8.50;;;7.70;;
16870;SDS011;8552;48.120;-1.456;2022-09-02T02:20:19;8.90;;;7.60;;
16870;SDS011;8552;48.120;-1.456;2022-09-02T02:22:45;8.63;;;7.70;;
16870;SDS011;8552;48.120;-1.456;2022-09-02T02:25:12;8.38;;;7.60;;
16870;SDS011;8552;48.120;-1.456;2022-09-02T02:27:39;7.75;;;6.30;;
16870;SDS011;8552;48.120;-1.456;2022-09-02T02:30:06;8.75;;;6.93;;
16870;SDS011;8552;48.120;-1.456;2022-09-02T02:32:33;7.15;;;6.10;;
16870;SDS011;8552;48.120;-1.456;2022-09-02T02:34:59;8.43;;;7.28;;
16870;SDS011;8552;48.120;-1.456;2022-09-02T02:37:25;9.55;;;6.30;;
16870;SDS011;8552;48.120;-1.456;2022-09-02T02:39:51;10.07;;;7.07;;
16870;SDS011;8552;48.120;-1.456;2022-09-02T02:42:17;8.52;;;7.32;;
16870;SDS011;8552;48.120;-1.456;2022-09-02T02:44:44;7.78;;;6.82;;
16870;SDS011;8552;48.120;-1.456;2022-09-02T02:47:10;8.85;;;7.72;;
16870;SDS011;8552;48.120;-1.456;2022-09-02T02:49:36;10.85;;;7.65;;
16870;SDS011;8552;48.120;-1.456;2022-09-02T02:52:03;8.55;;;7.63;;
16870;SDS011;8552;48.120;-1.456;2022-09-02T02:54:29;11.18;;;7.63;;
16870;SDS011;8552;48.120;-1.456;2022-09-02T02:56:55;8.80;;;7.90;;
16870;SDS011;8552;48.120;-1.456;2022-09-02T02:59:20;9.68;;;7.60;;
16870;SDS011;8552;48.120;-1.456;2022-09-02T03:01:46;9.63;;;7.95;;
16870;SDS011;8552;48.120;-1.456;2022-09-02T03:04:12;8.73;;;7.82;;
16870;SDS011;8552;48.120;-1.456;2022-09-02T03:06:38;8.50;;;7.10;;
16870;SDS011;8552;48.120;-1.456;2022-09-02T03:09:03;9.45;;;7.68;;
16870;SDS011;8552;48.120;-1.456;2022-09-02T03:11:29;9.50;;;7.68;;
16870;SDS011;8552;48.120;-1.456;2022-09-02T03:13:56;8.98;;;7.43;;
16870;SDS011;8552;48.120;-1.456;2022-09-02T03:16:23;7.70;;;6.88;;
16870;SDS011;8552;48.120;-1.456;2022-09-02T03:18:49;9.32;;;7.15;;
16870;SDS011;8552;48.120;-1.456;2022-09-02T03:21:16;10.73;;;7.50;;
16870;SDS011;8552;48.120;-1.456;2022-09-02T03:23:43;8.18;;;7.30;;
16870;SDS011;8552;48.120;-1.456;2022-09-02T03:26:17;9.68;;;8.27;;
16870;SDS011;8552;48.120;-1.456;2022-09-02T03:28:44;7.18;;;6.35;;
16870;SDS011;8552;48.120;-1.456;2022-09-02T03:31:16;8.75;;;6.55;;
16870;SDS011;8552;48.120;-1.456;2022-09-02T03:33:45;7.45;;;6.20;;
16870;SDS011;8552;48.120;-1.456;2022-09-02T03:36:22;8.07;;;5.72;;
16870;SDS011;8552;48.120;-1.456;2022-09-02T03:38:57;9.48;;;6.90;;
16870;SDS011;8552;48.120;-1.456;2022-09-02T03:41:23;7.75;;;6.32;;
16870;SDS011;8552;48.120;-1.456;2022-09-02T03:43:49;5.93;;;5.15;;
16870;SDS011;8552;48.120;-1.456;2022-09-02T03:46:15;6.97;;;6.32;;
16870;SDS011;8552;48.120;-1.456;2022-09-02T03:48:41;7.20;;;6.15;;
16870;SDS011;8552;48.120;-1.456;2022-09-02T03:51:08;7.88;;;6.55;;
16870;SDS011;8552;48.120;-1.456;2022-09-02T03:53:34;7.25;;;5.90;;
16870;SDS011;8552;48.120;-1.456;2022-09-02T03:56:07;7.60;;;5.07;;
16870;SDS011;8552;48.120;-1.456;2022-09-02T03:58:36;7.18;;;5.53;;
16870;SDS011;8552;48.120;-1.456;2022-09-02T04:01:02;6.30;;;5.18;;
16870;SDS011;8552;48.120;-1.456;2022-09-02T04:03:29;5.50;;;5.00;;
16870;SDS011;8552;48.120;-1.456;2022-09-02T04:05:55;7.75;;;5.40;;
16870;SDS011;8552;48.120;-1.456;2022-09-02T04:08:22;9.32;;;5.80;;
16870;SDS011;8552;48.120;-1.456;2022-09-02T04:10:48;9.10;;;6.03;;
16870;SDS011;8552;48.120;-1.456;2022-09-02T04:13:14;6.53;;;5.22;;
16870;SDS011;8552;48.120;-1.456;2022-09-02T04:15:40;6.03;;;5.30;;
16870;SDS011;8552;48.120;-1.456;2022-09-02T04:18:09;6.53;;;4.53;;
16870;SDS011;8552;48.120;-1.456;2022-09-02T04:20:38;10.63;;;5.32;;
16870;SDS011;8552;48.120;-1.456;2022-09-02T04:23:05;7.72;;;6.10;;
16870;SDS011;8552;48.120;-1.456;2022-09-02T04:25:31;5.20;;;4.70;;
16870;SDS011;8552;48.120;-1.456;2022-09-02T04:27:57;8.52;;;5.60;;
16870;SDS011;8552;48.120;-1.456;2022-09-02T04:30:24;12.23;;;5.65;;
16870;SDS011;8552;48.120;-1.456;2022-09-02T04:32:50;5.57;;;5.03;;
16870;SDS011;8552;48.120;-1.456;2022-09-02T04:35:16;7.03;;;5.40;;
16870;SDS011;8552;48.120;-1.456;2022-09-02T04:37:42;11.18;;;5.95;;
16870;SDS011;8552;48.120;-1.456;2022-09-02T04:40:08;5.95;;;5.35;;
16870;SDS011;8552;48.120;-1.456;2022-09-02T04:42:34;6.30;;;5.15;;
16870;SDS011;8552;48.120;-1.456;2022-09-02T04:45:00;6.10;;;5.50;;
16870;SDS011;8552;48.120;-1.456;2022-09-02T04:47:26;7.60;;;5.95;;
16870;SDS011;8552;48.120;-1.456;2022-09-02T04:49:52;7.90;;;7.00;;
16870;SDS011;8552;48.120;-1.456;2022-09-02T04:52:18;8.48;;;6.97;;
16870;SDS011;8552;48.120;-1.456;2022-09-02T04:54:44;6.13;;;5.50;;
16870;SDS011;8552;48.120;-1.456;2022-09-02T04:57:11;6.00;;;5.28;;
16870;SDS011;8552;48.120;-1.456;2022-09-02T04:59:36;5.80;;;4.57;;
16870;SDS011;8552;48.120;-1.456;2022-09-02T05:02:03;10.40;;;5.05;;
16870;SDS011;8552;48.120;-1.456;2022-09-02T05:04:29;8.77;;;7.07;;
16870;SDS011;8552;48.120;-1.456;2022-09-02T05:06:55;7.20;;;6.05;;
16870;SDS011;8552;48.120;-1.456;2022-09-02T05:09:26;6.75;;;6.03;;
16870;SDS011;8552;48.120;-1.456;2022-09-02T05:11:53;5.82;;;5.03;;
16870;SDS011;8552;48.120;-1.456;2022-09-02T05:14:22;7.35;;;6.65;;
16870;SDS011;8552;48.120;-1.456;2022-09-02T05:16:49;9.15;;;6.70;;
16870;SDS011;8552;48.120;-1.456;2022-09-02T05:19:19;7.32;;;5.95;;
16870;SDS011;8552;48.120;-1.456;2022-09-02T05:21:47;8.75;;;5.50;;
16870;SDS011;8552;48.120;-1.456;2022-09-02T05:24:14;8.35;;;5.90;;
16870;SDS011;8552;48.120;-1.456;2022-09-02T05:26:40;6.85;;;6.15;;
16870;SDS011;8552;48.120;-1.456;2022-09-02T05:29:07;6.38;;;4.85;;
16870;SDS011;8552;48.120;-1.456;2022-09-02T05:31:34;6.85;;;5.05;;
16870;SDS011;8552;48.120;-1.456;2022-09-02T05:33:59;7.32;;;5.32;;
16870;SDS011;8552;48.120;-1.456;2022-09-02T05:36:25;6.00;;;5.18;;
16870;SDS011;8552;48.120;-1.456;2022-09-02T05:38:52;5.40;;;4.90;;
16870;SDS011;8552;48.120;-1.456;2022-09-02T05:41:20;7.30;;;5.60;;
16870;SDS011;8552;48.120;-1.456;2022-09-02T05:43:49;6.13;;;5.53;;
16870;SDS011;8552;48.120;-1.456;2022-09-02T05:46:17;7.22;;;6.05;;
16870;SDS011;8552;48.120;-1.456;2022-09-02T05:48:46;6.30;;;5.32;;
16870;SDS011;8552;48.120;-1.456;2022-09-02T05:51:41;7.57;;;5.32;;
16870;SDS011;8552;48.120;-1.456;2022-09-02T05:54:13;9.27;;;5.35;;
16870;SDS011;8552;48.120;-1.456;2022-09-02T05:56:41;10.02;;;6.10;;
16870;SDS011;8552;48.120;-1.456;2022-09-02T05:59:08;12.85;;;6.93;;
16870;SDS011;8552;48.120;-1.456;2022-09-02T06:01:35;8.88;;;6.22;;
16870;SDS011;8552;48.120;-1.456;2022-09-02T06:04:01;11.50;;;6.93;;
16870;SDS011;8552;48.120;-1.456;2022-09-02T06:06:29;10.23;;;6.93;;
16870;SDS011;8552;48.120;-1.456;2022-09-02T06:08:56;7.70;;;6.75;;
16870;SDS011;8552;48.120;-1.456;2022-09-02T06:11:23;9.07;;;6.85;;
16870;SDS011;8552;48.120;-1.456;2022-09-02T06:13:49;6.88;;;5.97;;
16870;SDS011;8552;48.120;-1.456;2022-09-02T06:16:18;7.93;;;6.88;;
16870;SDS011;8552;48.120;-1.456;2022-09-02T06:18:45;9.85;;;7.03;;
16870;SDS011;8552;48.120;-1.456;2022-09-02T06:21:12;11.40;;;6.95;;
16870;SDS011;8552;48.120;-1.456;2022-09-02T06:23:38;9.27;;;7.20;;
16870;SDS011;8552;48.120;-1.456;2022-09-02T06:26:05;9.27;;;7.30;;
16870;SDS011;8552;48.120;-1.456;2022-09-02T06:28:33;7.57;;;6.63;;
16870;SDS011;8552;48.120;-1.456;2022-09-02T06:30:59;11.85;;;7.80;;
16870;SDS011;8552;48.120;-1.456;2022-09-02T06:33:30;10.52;;;8.07;;
16870;SDS011;8552;48.120;-1.456;2022-09-02T06:35:56;12.80;;;9.07;;
16870;SDS011;8552;48.120;-1.456;2022-09-02T06:38:21;11.90;;;8.82;;
16870;SDS011;8552;48.120;-1.456;2022-09-02T06:40:48;12.27;;;9.00;;
16870;SDS011;8552;48.120;-1.456;2022-09-02T06:43:16;15.43;;;10.73;;
16870;SDS011;8552;48.120;-1.456;2022-09-02T06:45:42;12.45;;;9.65;;
16870;SDS011;8552;48.120;-1.456;2022-09-02T06:48:08;15.07;;;9.63;;
16870;SDS011;8552;48.120;-1.456;2022-09-02T06:50:39;14.90;;;10.35;;
16870;SDS011;8552;48.120;-1.456;2022-09-02T06:53:06;13.95;;;10.85;;
16870;SDS011;8552;48.120;-1.456;2022-09-02T06:55:34;13.77;;;10.38;;
16870;SDS011;8552;48.120;-1.456;2022-09-02T06:58:00;14.90;;;10.55;;
16870;SDS011;8552;48.120;-1.456;2022-09-02T07:00:26;15.43;;;11.43;;
16870;SDS011;8552;48.120;-1.456;2022-09-02T07:02:52;19.05;;;12.30;;
16870;SDS011;8552;48.120;-1.456;2022-09-02T07:05:38;15.27;;;12.38;;
16870;SDS011;8552;48.120;-1.456;2022-09-02T07:08:06;16.85;;;12.68;;
16870;SDS011;8552;48.120;-1.456;2022-09-02T07:10:39;17.90;;;14.23;;
16870;SDS011;8552;48.120;-1.456;2022-09-02T07:13:12;18.83;;;16.02;;
16870;SDS011;8552;48.120;-1.456;2022-09-02T07:15:51;19.40;;;15.73;;
16870;SDS011;8552;48.120;-1.456;2022-09-02T07:18:22;20.00;;;16.58;;
16870;SDS011;8552;48.120;-1.456;2022-09-02T07:20:58;22.67;;;16.27;;
16870;SDS011;8552;48.120;-1.456;2022-09-02T07:23:34;20.65;;;16.73;;
16870;SDS011;8552;48.120;-1.456;2022-09-02T07:26:12;18.73;;;16.35;;
16870;SDS011;8552;48.120;-1.456;2022-09-02T07:28:46;20.23;;;16.98;;
16870;SDS011;8552;48.120;-1.456;2022-09-02T07:31:20;22.35;;;16.30;;
16870;SDS011;8552;48.120;-1.456;2022-09-02T07:33:54;19.45;;;16.42;;
16870;SDS011;8552;48.120;-1.456;2022-09-02T07:36:32;23.42;;;16.25;;
16870;SDS011;8552;48.120;-1.456;2022-09-02T07:39:23;17.98;;;14.50;;
16870;SDS011;8552;48.120;-1.456;2022-09-02T07:41:50;21.50;;;15.65;;
16870;SDS011;8552;48.120;-1.456;2022-09-02T07:44:21;16.67;;;14.88;;
16870;SDS011;8552;48.120;-1.456;2022-09-02T07:46:59;17.45;;;15.30;;
16870;SDS011;8552;48.120;-1.456;2022-09-02T07:49:29;19.55;;;15.02;;
16870;SDS011;8552;48.120;-1.456;2022-09-02T07:51:57;18.25;;;15.73;;
16870;SDS011;8552;48.120;-1.456;2022-09-02T07:54:28;20.13;;;15.48;;
16870;SDS011;8552;48.120;-1.456;2022-09-02T07:56:59;18.38;;;16.05;;
16870;SDS011;8552;48.120;-1.456;2022-09-02T07:59:32;17.60;;;15.75;;
16870;SDS011;8552;48.120;-1.456;2022-09-02T08:02:11;17.65;;;15.85;;
16870;SDS011;8552;48.120;-1.456;2022-09-02T08:04:44;17.95;;;15.18;;
16870;SDS011;8552;48.120;-1.456;2022-09-02T08:07:13;17.65;;;15.60;;
16870;SDS011;8552;48.120;-1.456;2022-09-02T08:09:50;20.10;;;15.95;;
16870;SDS011;8552;48.120;-1.456;2022-09-02T08:12:28;21.58;;;16.52;;
16870;SDS011;8552;48.120;-1.456;2022-09-02T08:15:06;17.88;;;16.05;;
16870;SDS011;8552;48.120;-1.456;2022-09-02T08:17:39;18.23;;;15.68;;
16870;SDS011;8552;48.120;-1.456;2022-09-02T08:20:21;19.42;;;16.27;;
16870;SDS011;8552;48.120;-1.456;2022-09-02T08:22:55;20.30;;;16.50;;
16870;SDS011;8552;48.120;-1.456;2022-09-02T08:25:25;18.83;;;16.83;;
16870;SDS011;8552;48.120;-1.456;2022-09-02T08:27:54;18.75;;;16.10;;
16870;SDS011;8552;48.120;-1.456;2022-09-02T08:30:23;18.88;;;16.42;;
16870;SDS011;8552;48.120;-1.456;2022-09-02T08:32:52;21.20;;;16.85;;
16870;SDS011;8552;48.120;-1.456;2022-09-02T08:35:22;17.35;;;15.55;;
16870;SDS011;8552;48.120;-1.456;2022-09-02T08:37:47;21.25;;;16.75;;
16870;SDS011;8552;48.120;-1.456;2022-09-02T08:40:18;20.60;;;16.90;;
16870;SDS011;8552;48.120;-1.456;2022-09-02T08:42:47;17.65;;;15.80;;
16870;SDS011;8552;48.120;-1.456;2022-09-02T08:45:37;17.17;;;15.45;;
16870;SDS011;8552;48.120;-1.456;2022-09-02T08:48:04;17.70;;;15.07;;
16870;SDS011;8552;48.120;-1.456;2022-09-02T08:50:51;17.75;;;15.85;;
16870;SDS011;8552;48.120;-1.456;2022-09-02T08:53:43;18.00;;;15.73;;
16870;SDS011;8552;48.120;-1.456;2022-09-02T08:56:10;16.17;;;13.93;;
16870;SDS011;8552;48.120;-1.456;2022-09-02T08:58:39;19.13;;;15.75;;
16870;SDS011;8552;48.120;-1.456;2022-09-02T09:12:43;17.40;;;14.95;;
16870;SDS011;8552;48.120;-1.456;2022-09-02T09:17:58;18.38;;;15.30;;
16870;SDS011;8552;48.120;-1.456;2022-09-02T09:20:31;18.60;;;16.23;;
16870;SDS011;8552;48.120;-1.456;2022-09-02T09:22:59;17.05;;;15.32;;
16870;SDS011;8552;48.120;-1.456;2022-09-02T09:25:30;20.55;;;15.93;;
16870;SDS011;8552;48.120;-1.456;2022-09-02T09:28:00;16.35;;;14.65;;
16870;SDS011;8552;48.120;-1.456;2022-09-02T09:30:26;17.85;;;15.95;;
16870;SDS011;8552;48.120;-1.456;2022-09-02T09:32:56;17.77;;;15.93;;
16870;SDS011;8552;48.120;-1.456;2022-09-02T09:35:24;16.48;;;14.23;;
16870;SDS011;8552;48.120;-1.456;2022-09-02T09:37:54;17.60;;;13.75;;
16870;SDS011;8552;48.120;-1.456;2022-09-02T09:40:28;17.42;;;15.27;;
16870;SDS011;8552;48.120;-1.456;2022-09-02T09:53:20;14.35;;;12.88;;
16870;SDS011;8552;48.120;-1.456;2022-09-02T10:01:19;15.63;;;13.93;;
16870;SDS011;8552;48.120;-1.456;2022-09-02T10:03:51;15.30;;;13.70;;
16870;SDS011;8552;48.120;-1.456;2022-09-02T10:11:29;15.13;;;13.63;;
16870;SDS011;8552;48.120;-1.456;2022-09-02T10:14:00;15.32;;;13.82;;
16870;SDS011;8552;48.120;-1.456;2022-09-02T10:24:41;18.17;;;14.45;;
16870;SDS011;8552;48.120;-1.456;2022-09-02T10:27:23;16.25;;;14.43;;
16870;SDS011;8552;48.120;-1.456;2022-09-02T10:30:05;17.92;;;15.02;;
16870;SDS011;8552;48.120;-1.456;2022-09-02T10:36:27;15.65;;;13.18;;
16870;SDS011;8552;48.120;-1.456;2022-09-02T10:39:10;16.80;;;13.32;;
16870;SDS011;8552;48.120;-1.456;2022-09-02T10:41:48;16.38;;;14.50;;
16870;SDS011;8552;48.120;-1.456;2022-09-02T10:44:22;17.50;;;13.57;;
16870;SDS011;8552;48.120;-1.456;2022-09-02T10:49:41;14.45;;;12.40;;
16870;SDS011;8552;48.120;-1.456;2022-09-02T10:55:19;16.40;;;12.55;;
16870;SDS011;8552;48.120;-1.456;2022-09-02T10:57:51;13.00;;;11.60;;
16870;SDS011;8552;48.120;-1.456;2022-09-02T11:00:23;15.82;;;12.88;;
16870;SDS011;8552;48.120;-1.456;2022-09-02T11:05:49;16.23;;;13.52;;
16870;SDS011;8552;48.120;-1.456;2022-09-02T11:08:37;14.50;;;12.50;;
16870;SDS011;8552;48.120;-1.456;2022-09-02T11:14:12;13.45;;;11.98;;
16870;SDS011;8552;48.120;-1.456;2022-09-02T11:17:28;14.57;;;12.80;;
16870;SDS011;8552;48.120;-1.456;2022-09-02T11:19:37;14.82;;;12.20;;
16870;SDS011;8552;48.120;-1.456;2022-09-02T11:25:32;13.65;;;10.25;;
16870;SDS011;8552;48.120;-1.456;2022-09-02T11:28:34;11.57;;;10.07;;
16870;SDS011;8552;48.120;-1.456;2022-09-02T11:31:12;11.15;;;9.70;;
16870;SDS011;8552;48.120;-1.456;2022-09-02T11:33:59;10.70;;;9.13;;
16870;SDS011;8552;48.120;-1.456;2022-09-02T11:36:40;11.68;;;10.27;;
16870;SDS011;8552;48.120;-1.456;2022-09-02T11:39:14;12.20;;;9.05;;
16870;SDS011;8552;48.120;-1.456;2022-09-02T11:45:07;9.13;;;8.18;;
16870;SDS011;8552;48.120;-1.456;2022-09-02T11:53:38;11.50;;;9.30;;
16870;SDS011;8552;48.120;-1.456;2022-09-02T11:58:39;9.02;;;8.13;;
16870;SDS011;8552;48.120;-1.456;2022-09-02T12:01:24;9.95;;;8.60;;
16870;SDS011;8552;48.120;-1.456;2022-09-02T12:06:27;8.88;;;7.97;;
16870;SDS011;8552;48.120;-1.456;2022-09-02T12:14:02;10.48;;;9.00;;
16870;SDS011;8552;48.120;-1.456;2022-09-02T12:21:24;10.70;;;8.20;;
16870;SDS011;8552;48.120;-1.456;2022-09-02T12:26:23;7.95;;;7.10;;
16870;SDS011;8552;48.120;-1.456;2022-09-02T12:29:12;6.70;;;5.00;;
16870;SDS011;8552;48.120;-1.456;2022-09-02T12:31:56;7.97;;;5.68;;
16870;SDS011;8552;48.120;-1.456;2022-09-02T12:36:49;10.25;;;7.65;;
16870;SDS011;8552;48.120;-1.456;2022-09-02T12:44:35;6.28;;;5.22;;
16870;SDS011;8552;48.120;-1.456;2022-09-02T12:52:38;7.40;;;5.07;;
16870;SDS011;8552;48.120;-1.456;2022-09-02T12:55:11;9.68;;;5.80;;
16870;SDS011;8552;48.120;-1.456;2022-09-02T12:57:49;7.30;;;6.00;;
16870;SDS011;8552;48.120;-1.456;2022-09-02T13:28:28;5.55;;;4.05;;
16870;SDS011;8552;48.120;-1.456;2022-09-02T13:31:19;3.83;;;3.30;;
16870;SDS011;8552;48.120;-1.456;2022-09-02T13:36:48;4.75;;;3.70;;
16870;SDS011;8552;48.120;-1.456;2022-09-02T13:39:19;4.47;;;3.92;;
16870;SDS011;8552;48.120;-1.456;2022-09-02T13:42:00;6.40;;;4.53;;
16870;SDS011;8552;48.120;-1.456;2022-09-02T13:47:47;4.88;;;4.10;;
16870;SDS011;8552;48.120;-1.456;2022-09-02T13:50:32;3.70;;;3.28;;
16870;SDS011;8552;48.120;-1.456;2022-09-02T13:53:03;4.65;;;3.55;;
16870;SDS011;8552;48.120;-1.456;2022-09-02T13:55:33;4.38;;;3.20;;
16870;SDS011;8552;48.120;-1.456;2022-09-02T13:58:01;3.63;;;3.33;;
16870;SDS011;8552;48.120;-1.456;2022-09-02T14:00:33;6.10;;;3.60;;
16870;SDS011;8552;48.120;-1.456;2022-09-02T14:03:09;4.05;;;3.70;;
16870;SDS011;8552;48.120;-1.456;2022-09-02T14:05:39;5.22;;;4.18;;
16870;SDS011;8552;48.120;-1.456;2022-09-02T14:08:12;3.78;;;3.17;;
16870;SDS011;8552;48.120;-1.456;2022-09-02T14:10:55;7.65;;;4.20;;
16870;SDS011;8552;48.120;-1.456;2022-09-02T14:13:27;4.38;;;3.38;;
16870;SDS011;8552;48.120;-1.456;2022-09-02T14:16:22;5.97;;;3.47;;
16870;SDS011;8552;48.120;-1.456;2022-09-02T14:19:04;4.18;;;3.88;;
16870;SDS011;8552;48.120;-1.456;2022-09-02T14:21:48;4.10;;;3.65;;
16870;SDS011;8552;48.120;-1.456;2022-09-02T14:24:26;3.92;;;3.60;;
16870;SDS011;8552;48.120;-1.456;2022-09-02T14:26:57;3.22;;;2.95;;
16870;SDS011;8552;48.120;-1.456;2022-09-02T14:29:28;6.00;;;3.10;;
16870;SDS011;8552;48.120;-1.456;2022-09-02T14:32:08;4.03;;;3.00;;
16870;SDS011;8552;48.120;-1.456;2022-09-02T14:34:39;5.32;;;2.45;;
16870;SDS011;8552;48.120;-1.456;2022-09-02T14:37:20;3.00;;;2.20;;
16870;SDS011;8552;48.120;-1.456;2022-09-02T14:40:11;2.97;;;2.33;;
16870;SDS011;8552;48.120;-1.456;2022-09-02T14:42:42;4.10;;;2.25;;
16870;SDS011;8552;48.120;-1.456;2022-09-02T14:45:26;3.30;;;2.20;;
16870;SDS011;8552;48.120;-1.456;2022-09-02T14:47:52;5.57;;;2.40;;
16870;SDS011;8552;48.120;-1.456;2022-09-02T14:50:20;3.67;;;2.70;;
16870;SDS011;8552;48.120;-1.456;2022-09-02T14:52:50;4.22;;;2.60;;
16870;SDS011;8552;48.120;-1.456;2022-09-02T14:58:10;4.53;;;2.50;;
16870;SDS011;8552;48.120;-1.456;2022-09-02T15:00:36;4.82;;;2.90;;
16870;SDS011;8552;48.120;-1.456;2022-09-02T15:03:03;3.08;;;2.50;;
16870;SDS011;8552;48.120;-1.456;2022-09-02T15:05:31;3.97;;;2.60;;
16870;SDS011;8552;48.120;-1.456;2022-09-02T15:07:58;3.13;;;2.67;;
16870;SDS011;8552;48.120;-1.456;2022-09-02T15:10:25;3.78;;;3.10;;
16870;SDS011;8552;48.120;-1.456;2022-09-02T15:12:53;3.20;;;2.85;;
16870;SDS011;8552;48.120;-1.456;2022-09-02T15:15:22;3.50;;;2.97;;
16870;SDS011;8552;48.120;-1.456;2022-09-02T15:17:50;3.42;;;2.92;;
16870;SDS011;8552;48.120;-1.456;2022-09-02T15:20:16;2.88;;;2.67;;
16870;SDS011;8552;48.120;-1.456;2022-09-02T15:22:43;5.30;;;3.55;;
16870;SDS011;8552;48.120;-1.456;2022-09-02T15:25:09;3.78;;;3.15;;
16870;SDS011;8552;48.120;-1.456;2022-09-02T15:27:35;3.65;;;3.22;;
16870;SDS011;8552;48.120;-1.456;2022-09-02T15:30:01;5.25;;;3.30;;
16870;SDS011;8552;48.120;-1.456;2022-09-02T15:32:28;13.90;;;10.98;;
16870;SDS011;8552;48.120;-1.456;2022-09-02T15:34:53;12.68;;;9.95;;
16870;SDS011;8552;48.120;-1.456;2022-09-02T15:37:19;25.50;;;22.80;;
16870;SDS011;8552;48.120;-1.456;2022-09-02T15:39:45;3.67;;;2.97;;
16870;SDS011;8552;48.120;-1.456;2022-09-02T15:42:10;3.10;;;2.80;;
16870;SDS011;8552;48.120;-1.456;2022-09-02T15:44:37;8.63;;;7.72;;
16870;SDS011;8552;48.120;-1.456;2022-09-02T15:47:03;3.28;;;2.97;;
16870;SDS011;8552;48.120;-1.456;2022-09-02T15:49:34;4.13;;;2.83;;
16870;SDS011;8552;48.120;-1.456;2022-09-02T15:52:01;3.75;;;3.30;;
16870;SDS011;8552;48.120;-1.456;2022-09-02T15:54:28;3.70;;;3.00;;
16870;SDS011;8552;48.120;-1.456;2022-09-02T15:56:56;4.65;;;2.70;;
16870;SDS011;8552;48.120;-1.456;2022-09-02T15:59:27;3.00;;;2.58;;
16870;SDS011;8552;48.120;-1.456;2022-09-02T16:01:58;3.45;;;2.20;;
16870;SDS011;8552;48.120;-1.456;2022-09-02T16:04:26;2.42;;;2.00;;
16870;SDS011;8552;48.120;-1.456;2022-09-02T16:06:51;2.67;;;2.45;;
16870;SDS011;8552;48.120;-1.456;2022-09-02T16:09:21;2.65;;;2.45;;
16870;SDS011;8552;48.120;-1.456;2022-09-02T16:11:48;5.13;;;2.28;;
16870;SDS011;8552;48.120;-1.456;2022-09-02T16:14:16;2.28;;;2.00;;
16870;SDS011;8552;48.120;-1.456;2022-09-02T16:16:43;2.42;;;2.22;;
16870;SDS011;8552;48.120;-1.456;2022-09-02T16:19:10;2.22;;;2.13;;
16870;SDS011;8552;48.120;-1.456;2022-09-02T16:21:37;2.47;;;2.20;;
16870;SDS011;8552;48.120;-1.456;2022-09-02T16:24:05;2.90;;;2.20;;
16870;SDS011;8552;48.120;-1.456;2022-09-02T16:26:38;3.50;;;2.20;;
16870;SDS011;8552;48.120;-1.456;2022-09-02T16:29:06;3.20;;;2.53;;
16870;SDS011;8552;48.120;-1.456;2022-09-02T16:31:34;2.90;;;1.90;;
16870;SDS011;8552;48.120;-1.456;2022-09-02T16:36:35;3.13;;;1.90;;
16870;SDS011;8552;48.120;-1.456;2022-09-02T16:39:03;2.17;;;1.85;;
16870;SDS011;8552;48.120;-1.456;2022-09-02T16:41:50;2.10;;;1.92;;
16870;SDS011;8552;48.120;-1.456;2022-09-02T16:44:20;3.10;;;1.90;;
16870;SDS011;8552;48.120;-1.456;2022-09-02T16:46:52;2.58;;;1.95;;
16870;SDS011;8552;48.120;-1.456;2022-09-02T16:49:20;2.40;;;1.90;;
16870;SDS011;8552;48.120;-1.456;2022-09-02T16:51:49;2.38;;;1.80;;
16870;SDS011;8552;48.120;-1.456;2022-09-02T16:54:18;1.88;;;1.77;;
16870;SDS011;8552;48.120;-1.456;2022-09-02T16:56:46;1.95;;;1.75;;
16870;SDS011;8552;48.120;-1.456;2022-09-02T16:59:13;1.40;;;1.30;;
16870;SDS011;8552;48.120;-1.456;2022-09-02T17:01:39;1.27;;;1.02;;
16870;SDS011;8552;48.120;-1.456;2022-09-02T17:04:08;2.13;;;0.80;;
16870;SDS011;8552;48.120;-1.456;2022-09-02T17:06:36;0.47;;;0.47;;
16870;SDS011;8552;48.120;-1.456;2022-09-02T17:09:04;2.40;;;0.70;;
16870;SDS011;8552;48.120;-1.456;2022-09-02T17:11:34;1.10;;;0.80;;
16870;SDS011;8552;48.120;-1.456;2022-09-02T17:14:11;2.53;;;0.60;;
16870;SDS011;8552;48.120;-1.456;2022-09-02T17:16:40;0.95;;;0.60;;
16870;SDS011;8552;48.120;-1.456;2022-09-02T17:19:12;0.93;;;0.55;;